createdAt,value
2019-04-19T00:02:00.749Z,12.80
2019-04-19T00:04:26.496Z,12.70
2019-04-19T00:07:09.428Z,12.70
2019-04-19T00:09:43.661Z,12.70
2019-04-19T00:12:18.026Z,12.70
2019-04-19T00:14:35.936Z,12.70
2019-04-19T00:17:13.965Z,12.60
2019-04-19T00:19:55.583Z,12.50
2019-04-19T00:22:28.667Z,12.50
2019-04-19T00:24:43.787Z,12.50
2019-04-19T00:27:14.476Z,12.50
2019-04-19T00:29:54.437Z,12.50
2019-04-19T00:32:33.936Z,12.40
2019-04-19T00:34:50.428Z,12.50
2019-04-19T00:37:20.999Z,12.40
2019-04-19T00:40:18.192Z,12.30
2019-04-19T00:43:03.655Z,12.30
2019-04-19T00:46:00.907Z,12.30
2019-04-19T00:48:29.615Z,12.30
2019-04-19T00:50:59.781Z,12.30
2019-04-19T00:53:28.650Z,12.20
2019-04-19T00:55:59.874Z,12.20
2019-04-19T00:58:26.355Z,12.10
2019-04-19T01:00:57.905Z,11.90
2019-04-19T01:03:34.496Z,12.00
2019-04-19T01:06:05.594Z,12.10
2019-04-19T01:08:32.471Z,12.00
2019-04-19T01:11:17.986Z,12.00
2019-04-19T01:13:51.402Z,12.10
2019-04-19T01:16:20.474Z,12.00
2019-04-19T01:18:49.350Z,12.00
2019-04-19T01:21:13.185Z,12.00
2019-04-19T01:23:48.071Z,12.10
2019-04-19T01:26:17.083Z,12.10
2019-04-19T01:28:55.638Z,12.00
2019-04-19T01:31:24.601Z,11.90
2019-04-19T01:33:52.738Z,11.90
2019-04-19T01:36:28.748Z,11.80
2019-04-19T01:39:16.592Z,11.80
2019-04-19T01:41:43.552Z,11.80
2019-04-19T01:44:24.070Z,11.70
2019-04-19T01:47:29.433Z,11.70
2019-04-19T01:50:13.265Z,11.70
2019-04-19T01:52:52.952Z,11.80
2019-04-19T01:55:12.359Z,11.80
2019-04-19T01:57:36.635Z,11.80
2019-04-19T02:00:13.074Z,11.70
2019-04-19T02:02:48.150Z,11.70
2019-04-19T02:05:17.703Z,11.60
2019-04-19T02:07:50.817Z,11.60
2019-04-19T02:11:24.707Z,11.60
2019-04-19T02:13:54.074Z,11.60
2019-04-19T02:16:22.799Z,11.50
2019-04-19T02:18:55.552Z,11.40
2019-04-19T02:21:28.998Z,11.40
2019-04-19T02:23:59.025Z,11.40
2019-04-19T02:26:28.029Z,11.40
2019-04-19T02:29:07.475Z,11.30
2019-04-19T02:31:53.899Z,11.30
2019-04-19T02:34:35.283Z,11.20
2019-04-19T02:39:56.188Z,11.30
2019-04-19T02:47:30.409Z,11.20
2019-04-19T02:49:54.527Z,11.10
2019-04-19T02:55:14.348Z,11.10
2019-04-19T02:57:59.237Z,11.20
2019-04-19T03:03:21.035Z,11.00
2019-04-19T03:05:50.555Z,10.90
2019-04-19T03:08:04.473Z,11.00
2019-04-19T03:10:49.918Z,10.90
2019-04-19T03:13:21.624Z,11.00
2019-04-19T03:15:55.749Z,10.90
2019-04-19T03:18:31.765Z,10.90
2019-04-19T03:20:55.516Z,10.80
2019-04-19T03:23:26.205Z,10.90
2019-04-19T03:25:58.952Z,10.80
2019-04-19T03:28:31.193Z,10.70
2019-04-19T03:31:38.502Z,10.70
2019-04-19T03:33:52.992Z,10.70
2019-04-19T03:36:18.342Z,10.60
2019-04-19T03:38:43.105Z,10.60
2019-04-19T03:41:38.861Z,10.70
2019-04-19T03:44:17.136Z,10.70
2019-04-19T03:46:52.741Z,10.60
2019-04-19T03:49:29.416Z,10.60
2019-04-19T03:51:59.815Z,10.60
2019-04-19T03:54:23.649Z,10.70
2019-04-19T03:56:59.225Z,10.70
2019-04-19T03:59:09.758Z,10.80
2019-04-19T04:01:45.461Z,10.70
2019-04-19T04:04:20.103Z,10.70
2019-04-19T04:06:45.938Z,10.80
2019-04-19T04:09:33.279Z,10.60
2019-04-19T04:12:32.450Z,10.60
2019-04-19T04:15:07.266Z,10.60
2019-04-19T04:17:28.927Z,10.50
2019-04-19T04:20:00.789Z,10.40
2019-04-19T04:22:37.122Z,10.40
2019-04-19T04:25:11.653Z,10.40
2019-04-19T04:27:46.373Z,10.40
2019-04-19T04:30:18.549Z,10.40
2019-04-19T04:32:53.730Z,10.40
2019-04-19T04:35:29.372Z,10.50
2019-04-19T04:37:58.661Z,10.50
2019-04-19T04:40:17.348Z,10.50
2019-04-19T04:43:04.150Z,10.60
2019-04-19T04:45:38.836Z,10.60
2019-04-19T04:48:14.580Z,10.50
2019-04-19T04:51:15.897Z,10.50
2019-04-19T04:53:55.192Z,10.50
2019-04-19T04:56:45.766Z,10.60
2019-04-19T04:59:11.410Z,10.50
2019-04-19T05:01:49.452Z,10.60
2019-04-19T05:04:24.031Z,10.70
2019-04-19T05:07:05.011Z,10.80
2019-04-19T05:09:45.296Z,10.80
2019-04-19T05:12:21.339Z,10.80
2019-04-19T05:14:46.402Z,10.90
2019-04-19T05:17:33.259Z,11.00
2019-04-19T05:19:59.124Z,11.00
2019-04-19T05:22:22.457Z,11.00
2019-04-19T05:25:09.566Z,11.00
2019-04-19T05:27:33.349Z,11.00
2019-04-19T05:29:49.903Z,11.10
2019-04-19T05:32:25.022Z,11.20
2019-04-19T05:35:06.969Z,11.20
2019-04-19T05:37:54.313Z,11.20
2019-04-19T05:40:28.989Z,11.30
2019-04-19T05:43:04.013Z,11.30
2019-04-19T05:45:42.992Z,11.40
2019-04-19T05:48:00.607Z,11.50
2019-04-19T05:50:39.695Z,11.60
2019-04-19T05:53:10.015Z,11.70
2019-04-19T05:55:30.303Z,11.70
2019-04-19T05:58:11.436Z,11.90
2019-04-19T06:00:48.577Z,12.80
2019-04-19T06:03:17.695Z,14.50
2019-04-19T06:06:08.194Z,16.60
2019-04-19T06:08:18.572Z,19.00
2019-04-19T06:10:49.761Z,20.70
2019-04-19T06:13:15.936Z,22.30
2019-04-19T06:16:05.655Z,23.90
2019-04-19T06:18:42.508Z,25.30
2019-04-19T06:23:55.490Z,28.20
2019-04-19T06:26:56.586Z,28.90
2019-04-19T06:29:06.238Z,29.50
2019-04-19T06:31:31.458Z,30.70
2019-04-19T06:34:02.755Z,31.30
2019-04-19T06:36:15.793Z,32.00
2019-04-19T06:38:46.975Z,32.90
2019-04-19T06:41:22.109Z,33.40
2019-04-19T06:44:01.423Z,33.70
2019-04-19T06:46:36.061Z,33.30
2019-04-19T06:49:03.120Z,33.30
2019-04-19T06:51:35.627Z,32.90
2019-04-19T06:54:03.987Z,31.60
2019-04-19T06:56:37.208Z,31.50
2019-04-19T06:59:13.862Z,32.70
2019-04-19T07:01:43.739Z,32.60
2019-04-19T07:04:09.209Z,33.00
2019-04-19T07:07:02.035Z,32.90
2019-04-19T07:09:38.802Z,33.50
2019-04-19T07:12:09.173Z,34.30
2019-04-19T07:14:23.173Z,33.70
2019-04-19T07:17:11.213Z,34.00
2019-04-19T07:19:38.642Z,35.10
2019-04-19T07:22:09.733Z,35.80
2019-04-19T07:24:51.228Z,35.90
2019-04-19T07:27:15.128Z,36.90
2019-04-19T07:29:31.608Z,37.00
2019-04-19T07:32:02.197Z,36.20
2019-04-19T07:34:50.666Z,36.00
2019-04-19T07:37:18.498Z,36.40
2019-04-19T07:40:09.637Z,37.20
2019-04-19T07:42:32.019Z,36.00
2019-04-19T07:44:54.481Z,36.10
2019-04-19T07:47:40.139Z,35.90
2019-04-19T07:50:11.953Z,37.00
2019-04-19T07:52:41.391Z,37.90
2019-04-19T07:55:12.712Z,37.60
2019-04-19T07:58:16.995Z,37.40
2019-04-19T08:03:17.291Z,37.60
2019-04-19T08:05:46.467Z,38.20
2019-04-19T08:08:42.111Z,39.60
2019-04-19T08:13:31.572Z,38.90
2019-04-19T08:16:01.392Z,38.60
2019-04-19T08:28:20.409Z,37.30
2019-04-19T08:30:48.724Z,38.50
2019-04-19T08:33:15.042Z,37.90
2019-04-19T08:35:51.399Z,37.80
2019-04-19T08:38:21.262Z,38.90
2019-04-19T08:41:02.129Z,39.80
2019-04-19T08:43:41.626Z,40.30
2019-04-19T08:46:15.557Z,39.40
2019-04-19T08:48:59.396Z,38.50
2019-04-19T08:51:45.599Z,40.00
2019-04-19T08:54:37.064Z,39.80
2019-04-19T08:56:57.405Z,40.10
2019-04-19T08:59:59.431Z,40.00
2019-04-19T09:02:16.452Z,39.10
2019-04-19T09:04:43.959Z,39.90
2019-04-19T09:10:10.377Z,39.90
2019-04-19T09:12:23.722Z,40.30
2019-04-19T09:14:57.002Z,40.30
2019-04-19T09:17:45.758Z,39.90
2019-04-19T09:22:34.301Z,41.60
2019-04-19T09:24:56.044Z,42.10
2019-04-19T09:27:41.993Z,42.60
2019-04-19T09:30:11.581Z,43.60
2019-04-19T09:32:30.057Z,43.50
2019-04-19T09:35:02.429Z,42.80
2019-04-19T09:37:41.699Z,42.30
2019-04-19T09:40:08.320Z,42.10
2019-04-19T09:42:44.674Z,42.00
2019-04-19T09:45:08.748Z,41.80
2019-04-19T09:47:39.871Z,43.10
2019-04-19T09:50:27.908Z,43.20
2019-04-19T09:53:10.951Z,44.20
2019-04-19T09:55:39.391Z,44.30
2019-04-19T09:58:05.842Z,44.20
2019-04-19T10:00:26.834Z,44.40
2019-04-19T10:03:02.289Z,43.70
2019-04-19T10:05:28.614Z,43.20
2019-04-19T10:07:59.678Z,43.80
2019-04-19T10:10:33.355Z,41.40
2019-04-19T10:13:05.788Z,40.30
2019-04-19T10:15:58.608Z,41.20
2019-04-19T10:18:28.998Z,41.80
2019-04-19T10:21:36.717Z,42.10
2019-04-19T10:24:12.550Z,42.80
2019-04-19T10:26:52.612Z,39.70
2019-04-19T10:29:28.800Z,40.00
2019-04-19T10:32:06.618Z,40.50
2019-04-19T10:34:38.520Z,39.60
2019-04-19T10:37:10.924Z,40.50
2019-04-19T10:39:41.711Z,40.70
2019-04-19T10:42:12.929Z,39.30
2019-04-19T10:44:44.370Z,39.90
2019-04-19T10:47:15.059Z,41.80
2019-04-19T10:49:51.568Z,42.20
2019-04-19T10:52:25.790Z,41.90
2019-04-19T10:54:59.454Z,41.90
2019-04-19T10:57:31.500Z,40.70
2019-04-19T11:00:04.400Z,39.20
2019-04-19T11:02:36.473Z,38.80
2019-04-19T11:05:09.226Z,37.00
2019-04-19T11:07:40.678Z,35.40
2019-04-19T11:10:13.716Z,33.60
2019-04-19T11:12:44.930Z,31.70
2019-04-19T11:15:16.208Z,29.60
2019-04-19T11:17:48.228Z,28.40
2019-04-19T11:20:30.989Z,27.30
2019-04-19T11:22:51.759Z,26.30
2019-04-19T11:25:22.487Z,25.90
2019-04-19T11:27:54.740Z,25.60
2019-04-19T11:30:37.064Z,25.20
2019-04-19T11:33:14.939Z,25.20
2019-04-19T11:35:53.085Z,24.80
2019-04-19T11:38:25.070Z,24.40
2019-04-19T11:40:57.541Z,24.20
2019-04-19T11:43:29.431Z,23.90
2019-04-19T11:46:00.462Z,23.80
2019-04-19T11:48:33.060Z,23.70
2019-04-19T11:51:03.669Z,23.90
2019-04-19T11:53:48.666Z,24.00
2019-04-19T11:56:54.271Z,24.10
2019-04-19T11:59:45.863Z,24.00
2019-04-19T12:02:15.965Z,24.20
2019-04-19T12:04:48.421Z,24.20
2019-04-19T12:07:19.003Z,24.20
2019-04-19T12:09:50.421Z,24.20
2019-04-19T12:12:21.256Z,24.40
2019-04-19T12:14:52.151Z,24.50
2019-04-19T12:17:25.153Z,24.50
2019-04-19T12:20:01.971Z,24.60
2019-04-19T12:22:28.464Z,24.70
2019-04-19T12:24:59.601Z,24.80
2019-04-19T12:27:31.739Z,24.50
2019-04-19T12:30:02.478Z,24.40
2019-04-19T12:32:48.544Z,24.40
2019-04-19T12:35:19.081Z,24.60
2019-04-19T12:37:51.169Z,24.70
2019-04-19T12:40:23.118Z,24.80
2019-04-19T12:42:53.957Z,24.80
2019-04-19T12:45:26.178Z,24.70
2019-04-19T12:47:57.179Z,24.60
2019-04-19T12:50:29.413Z,24.60
2019-04-19T12:53:02.130Z,24.50
2019-04-19T12:55:33.171Z,24.50
2019-04-19T12:58:04.303Z,24.50
2019-04-19T13:01:00.184Z,24.40
2019-04-19T13:03:48.431Z,24.40
2019-04-19T13:06:22.010Z,24.40
2019-04-19T13:08:52.946Z,24.40
2019-04-19T13:11:25.050Z,24.40
2019-04-19T13:13:57.522Z,24.40
2019-04-19T13:16:28.374Z,24.40
2019-04-19T13:19:00.412Z,24.30
2019-04-19T13:21:32.295Z,24.40
2019-04-19T13:24:04.523Z,24.50
2019-04-19T13:26:35.649Z,24.60
2019-04-19T13:29:07.257Z,24.70
2019-04-19T13:31:38.802Z,24.90
2019-04-19T13:34:09.582Z,24.80
2019-04-19T13:36:57.778Z,24.60
2019-04-19T13:39:36.259Z,24.60
2019-04-19T13:42:10.870Z,24.50
2019-04-19T13:44:42.940Z,24.60
2019-04-19T13:47:14.383Z,24.80
2019-04-19T13:49:44.958Z,24.80
2019-04-19T13:52:16.622Z,24.70
2019-04-19T13:54:48.499Z,24.60
2019-04-19T13:57:19.776Z,24.50
2019-04-19T13:59:57.702Z,24.30
2019-04-19T14:02:25.258Z,24.40
2019-04-19T14:04:56.144Z,24.40
2019-04-19T14:07:27.168Z,24.50
2019-04-19T14:09:59.092Z,24.50
2019-04-19T14:12:31.036Z,24.40
2019-04-19T14:15:02.794Z,24.60
2019-04-19T14:17:33.781Z,24.70
2019-04-19T14:20:05.218Z,24.60
2019-04-19T14:22:35.713Z,24.70
2019-04-19T14:25:07.498Z,24.70
2019-04-19T14:27:39.475Z,24.80
2019-04-19T14:30:11.249Z,24.80
2019-04-19T14:32:41.786Z,24.80
2019-04-19T14:35:14.111Z,24.90
2019-04-19T14:37:46.058Z,24.80
2019-04-19T14:40:19.625Z,24.60
2019-04-19T14:42:50.822Z,24.60
2019-04-19T14:45:23.848Z,24.50
2019-04-19T14:47:54.990Z,24.60
2019-04-19T14:50:39.687Z,24.70
2019-04-19T14:52:59.373Z,24.80
2019-04-19T14:55:30.204Z,24.90
2019-04-19T14:58:01.053Z,25.00
2019-04-19T15:00:32.736Z,25.00
2019-04-19T15:03:12.742Z,25.00
2019-04-19T15:05:45.780Z,25.00
2019-04-19T15:08:16.817Z,24.90
2019-04-19T15:10:47.819Z,24.80
2019-04-19T15:13:18.905Z,24.80
2019-04-19T15:15:49.977Z,24.60
2019-04-19T15:18:21.115Z,24.50
2019-04-19T15:20:57.254Z,24.50
2019-04-19T15:23:26.815Z,24.60
2019-04-19T15:25:58.384Z,24.60
2019-04-19T15:28:29.397Z,24.60
2019-04-19T15:31:00.412Z,24.50
2019-04-19T15:33:32.219Z,24.40
2019-04-19T15:36:04.663Z,24.40
2019-04-19T15:38:35.840Z,24.40
2019-04-19T15:41:06.589Z,24.40
2019-04-19T15:43:38.409Z,24.40
2019-04-19T15:46:09.384Z,24.50
2019-04-19T15:48:45.684Z,24.60
2019-04-19T15:51:22.093Z,24.70
2019-04-19T15:53:45.574Z,24.60
2019-04-19T15:56:16.427Z,24.60
2019-04-19T15:58:47.427Z,24.60
2019-04-19T16:01:21.907Z,24.70
2019-04-19T16:03:59.992Z,24.70
2019-04-19T16:06:56.352Z,24.70
2019-04-19T16:09:49.378Z,24.70
2019-04-19T16:12:29.360Z,24.70
2019-04-19T16:14:59.915Z,24.80
2019-04-19T16:17:31.423Z,24.60
2019-04-19T16:20:03.280Z,24.50
2019-04-19T16:22:34.120Z,24.40
2019-04-19T16:25:05.268Z,24.40
2019-04-19T16:27:35.846Z,24.40
2019-04-19T16:30:08.028Z,24.40
2019-04-19T16:32:39.097Z,24.30
2019-04-19T16:35:10.004Z,24.20
2019-04-19T16:37:40.677Z,24.30
2019-04-19T16:40:18.613Z,24.20
2019-04-19T16:42:49.745Z,24.10
2019-04-19T16:45:23.976Z,23.90
2019-04-19T16:47:55.551Z,23.80
2019-04-19T16:50:26.178Z,23.80
2019-04-19T16:52:56.846Z,23.80
2019-04-19T16:55:27.699Z,23.70
2019-04-19T16:57:58.863Z,23.50
2019-04-19T17:00:45.120Z,23.40
2019-04-19T17:03:17.150Z,23.30
2019-04-19T17:05:48.775Z,23.20
2019-04-19T17:08:19.683Z,23.10
2019-04-19T17:10:50.478Z,23.10
2019-04-19T17:13:21.039Z,22.90
2019-04-19T17:16:11.454Z,22.60
2019-04-19T17:19:03.154Z,22.50
2019-04-19T17:21:45.217Z,22.40
2019-04-19T17:24:07.134Z,22.30
2019-04-19T17:26:37.972Z,22.20
2019-04-19T17:29:08.905Z,22.10
2019-04-19T17:31:40.309Z,22.00
2019-04-19T17:34:11.990Z,21.80
2019-04-19T17:36:44.263Z,21.50
2019-04-19T17:39:15.040Z,21.40
2019-04-19T17:41:46.255Z,21.30
2019-04-19T17:44:17.537Z,21.20
2019-04-19T17:46:48.832Z,21.00
2019-04-19T17:49:20.358Z,20.90
2019-04-19T17:52:04.336Z,20.80
2019-04-19T17:54:45.766Z,20.70
2019-04-19T17:56:57.390Z,20.60
2019-04-19T17:59:28.163Z,20.50
2019-04-19T18:01:59.117Z,20.40
2019-04-19T18:04:30.277Z,20.20
2019-04-19T18:07:03.061Z,20.10
2019-04-19T18:09:33.171Z,19.90
2019-04-19T18:12:03.731Z,19.80
2019-04-19T18:14:35.797Z,19.70
2019-04-19T18:17:06.477Z,19.60
2019-04-19T18:19:38.844Z,19.50
2019-04-19T18:22:17.216Z,19.30
2019-04-19T18:24:50.008Z,19.20
2019-04-19T18:27:18.856Z,19.10
2019-04-19T18:29:46.302Z,19.00
2019-04-19T18:32:32.212Z,18.80
2019-04-19T18:35:07.809Z,18.80
2019-04-19T18:37:39.618Z,18.60
2019-04-19T18:40:09.304Z,18.50
2019-04-19T18:42:51.151Z,18.30
2019-04-19T18:45:16.890Z,18.20
2019-04-19T18:47:45.621Z,18.10
2019-04-19T18:50:18.280Z,18.00
2019-04-19T18:52:53.498Z,17.80
2019-04-19T18:55:29.600Z,17.70
2019-04-19T18:57:54.181Z,17.60
2019-04-19T19:00:26.814Z,17.50
2019-04-19T19:03:01.822Z,17.50
2019-04-19T19:05:30.226Z,17.30
2019-04-19T19:08:06.498Z,17.20
2019-04-19T19:10:39.557Z,17.20
2019-04-19T19:13:06.506Z,17.10
2019-04-19T19:15:43.192Z,17.00
2019-04-19T19:18:11.071Z,16.90
2019-04-19T19:20:51.746Z,16.80
2019-04-19T19:23:28.074Z,16.70
2019-04-19T19:25:55.271Z,16.70
2019-04-19T19:28:21.616Z,16.70
2019-04-19T19:30:53.071Z,16.60
2019-04-19T19:33:34.176Z,16.40
2019-04-19T19:36:01.043Z,16.40
2019-04-19T19:38:33.735Z,16.30
2019-04-19T19:41:17.614Z,16.30
2019-04-19T19:43:52.728Z,16.20
2019-04-19T19:46:34.041Z,16.10
2019-04-19T19:49:25.085Z,16.10
2019-04-19T19:51:29.349Z,16.00
2019-04-19T19:54:28.703Z,16.00
2019-04-19T19:56:43.160Z,15.90
2019-04-19T19:59:12.365Z,15.80
2019-04-19T20:01:36.488Z,15.70
2019-04-19T20:04:00.399Z,15.60
2019-04-19T20:06:32.873Z,15.50
2019-04-19T20:09:09.361Z,15.40
2019-04-19T20:11:37.793Z,15.40
2019-04-19T20:14:15.620Z,15.30
2019-04-19T20:16:43.362Z,15.20
2019-04-19T20:19:17.287Z,15.00
2019-04-19T20:21:54.092Z,15.00
2019-04-19T20:24:35.294Z,14.90
2019-04-19T20:27:04.958Z,14.90
2019-04-19T20:29:29.710Z,14.80
2019-04-19T20:31:56.559Z,14.80
2019-04-19T20:34:31.657Z,14.90
2019-04-19T20:37:00.041Z,14.80
2019-04-19T20:39:33.588Z,14.80
2019-04-19T20:42:06.084Z,14.70
2019-04-19T20:44:52.680Z,14.60
2019-04-19T20:47:08.395Z,14.60
2019-04-19T20:49:42.671Z,14.50
2019-04-19T20:52:24.720Z,14.50
2019-04-19T20:55:11.520Z,14.50
2019-04-19T20:57:48.688Z,14.50
2019-04-19T21:00:14.406Z,14.50
2019-04-19T21:02:45.841Z,14.40
2019-04-19T21:05:17.819Z,14.30
2019-04-19T21:07:56.330Z,14.20
2019-04-19T21:10:24.356Z,14.20
2019-04-19T21:13:02.968Z,14.10
2019-04-19T21:15:34.605Z,14.20
2019-04-19T21:18:01.299Z,14.10
2019-04-19T21:20:32.712Z,14.00
2019-04-19T21:23:11.202Z,13.90
2019-04-19T21:25:44.827Z,13.80
2019-04-19T21:28:08.596Z,13.80
2019-04-19T21:30:47.049Z,13.80
2019-04-19T21:33:15.480Z,13.70
2019-04-19T21:35:53.438Z,13.70
2019-04-19T21:38:23.112Z,13.70
2019-04-19T21:40:53.098Z,13.60
2019-04-19T21:43:28.459Z,13.70
2019-04-19T21:45:57.190Z,13.70
2019-04-19T21:48:34.825Z,13.70
2019-04-19T21:51:01.943Z,13.60
2019-04-19T21:53:37.079Z,13.70
2019-04-19T21:56:09.858Z,13.60
2019-04-19T21:58:40.652Z,13.50
2019-04-19T22:01:15.528Z,13.50
2019-04-19T22:03:44.279Z,13.50
2019-04-19T22:06:21.361Z,13.50
2019-04-19T22:08:48.201Z,13.50
2019-04-19T22:11:18.824Z,13.50
2019-04-19T22:13:53.479Z,13.50
2019-04-19T22:16:31.397Z,13.50
2019-04-19T22:18:56.066Z,13.50
2019-04-19T22:21:30.351Z,13.50
2019-04-19T22:23:58.554Z,13.50
2019-04-19T22:26:34.306Z,13.50
2019-04-19T22:29:01.703Z,13.50
2019-04-19T22:31:34.721Z,13.30
2019-04-19T22:34:06.336Z,13.40
2019-04-19T22:36:42.849Z,13.30
2019-04-19T22:39:11.633Z,13.40
2019-04-19T22:41:43.185Z,13.30
2019-04-19T22:44:14.479Z,13.30
2019-04-19T22:46:50.616Z,13.40
2019-04-19T22:49:18.209Z,13.30
2019-04-19T22:51:48.950Z,13.30
2019-04-19T22:54:19.494Z,13.40
2019-04-19T22:57:00.504Z,13.30
2019-04-19T22:59:23.712Z,13.30
2019-04-19T23:02:14.316Z,13.30
2019-04-19T23:04:49.292Z,13.40
2019-04-19T23:07:18.644Z,13.30
2019-04-19T23:09:50.769Z,13.30
2019-04-19T23:12:22.602Z,13.30
2019-04-19T23:14:53.274Z,13.20
2019-04-19T23:17:29.171Z,13.20
2019-04-19T23:19:57.323Z,13.20
2019-04-19T23:22:34.100Z,13.10
2019-04-19T23:25:04.476Z,13.10
2019-04-19T23:27:40.800Z,13.10
2019-04-19T23:30:22.254Z,13.10
2019-04-19T23:32:50.476Z,13.20
2019-04-19T23:35:28.678Z,13.20
2019-04-19T23:37:53.695Z,13.20
2019-04-19T23:40:30.077Z,13.20
2019-04-19T23:42:58.293Z,13.20
2019-04-19T23:45:33.971Z,13.20
2019-04-19T23:48:02.541Z,13.20
2019-04-19T23:50:37.939Z,13.20
2019-04-19T23:53:06.203Z,13.20
2019-04-19T23:55:36.775Z,13.30
2019-04-19T23:58:13.089Z,13.20
